createdAt,value
2018-12-26T00:01:03.509Z,20.77
2018-12-26T00:03:44.383Z,21.47
2018-12-26T00:06:25.035Z,19.13
2018-12-26T00:09:05.648Z,19.17
2018-12-26T00:11:46.503Z,20.33
2018-12-26T00:14:27.076Z,21.60
2018-12-26T00:17:07.991Z,22.47
2018-12-26T00:19:49.059Z,20.53
2018-12-26T00:22:29.723Z,21.87
2018-12-26T00:25:10.687Z,21.40
2018-12-26T00:27:51.302Z,22.80
2018-12-26T00:30:32.004Z,21.93
2018-12-26T00:33:12.620Z,20.93
2018-12-26T00:35:53.817Z,21.07
2018-12-26T00:38:34.492Z,23.13
2018-12-26T00:41:15.457Z,21.30
2018-12-26T00:43:55.922Z,22.37
2018-12-26T00:46:36.673Z,21.40
2018-12-26T00:49:17.490Z,20.43
2018-12-26T00:51:58.419Z,20.10
2018-12-26T00:54:38.964Z,20.57
2018-12-26T00:57:19.506Z,21.60
2018-12-26T01:00:00.141Z,22.27
2018-12-26T01:02:41.315Z,21.40
2018-12-26T01:05:21.967Z,20.03
2018-12-26T01:08:02.703Z,22.00
2018-12-26T01:10:42.991Z,21.10
2018-12-26T01:13:23.724Z,21.20
2018-12-26T01:16:04.696Z,21.33
2018-12-26T01:18:45.271Z,20.20
2018-12-26T01:21:26.915Z,20.93
2018-12-26T01:24:08.011Z,20.37
2018-12-26T01:26:48.283Z,19.73
2018-12-26T01:29:33.037Z,20.33
2018-12-26T01:32:13.600Z,21.13
2018-12-26T01:34:54.044Z,19.73
2018-12-26T01:37:34.620Z,20.70
2018-12-26T01:40:15.595Z,20.33
2018-12-26T01:42:56.087Z,20.43
2018-12-26T01:45:36.546Z,21.97
2018-12-26T01:48:17.242Z,21.93
2018-12-26T01:50:57.979Z,22.50
2018-12-26T01:53:38.499Z,19.80
2018-12-26T01:56:27.701Z,20.60
2018-12-26T01:59:01.609Z,20.93
2018-12-26T02:01:42.700Z,20.93
2018-12-26T02:04:23.631Z,23.40
2018-12-26T02:07:04.163Z,22.67
2018-12-26T02:09:44.768Z,22.23
2018-12-26T02:12:25.542Z,21.90
2018-12-26T02:15:05.897Z,20.70
2018-12-26T02:17:46.738Z,22.07
2018-12-26T02:20:27.303Z,20.23
2018-12-26T02:23:08.327Z,21.10
2018-12-26T02:25:49.697Z,22.13
2018-12-26T02:28:30.300Z,20.90
2018-12-26T02:31:10.715Z,22.23
2018-12-26T02:33:51.260Z,22.40
2018-12-26T02:36:32.237Z,20.70
2018-12-26T02:39:13.528Z,23.27
2018-12-26T02:41:53.964Z,20.93
2018-12-26T02:44:34.831Z,23.40
2018-12-26T02:47:15.631Z,21.90
2018-12-26T02:49:56.811Z,22.57
2018-12-26T02:52:37.748Z,21.57
2018-12-26T02:55:18.724Z,23.07
2018-12-26T02:57:59.208Z,21.07
2018-12-26T03:00:40.199Z,22.67
2018-12-26T03:03:20.988Z,21.90
2018-12-26T03:06:02.591Z,24.87
2018-12-26T03:08:43.315Z,23.47
2018-12-26T03:11:24.128Z,21.33
2018-12-26T03:14:04.859Z,22.83
2018-12-26T03:16:45.932Z,23.40
2018-12-26T03:19:26.430Z,20.93
2018-12-26T03:22:07.159Z,23.63
2018-12-26T03:24:47.953Z,22.97
2018-12-26T03:27:28.932Z,24.37
2018-12-26T03:30:09.492Z,22.67
2018-12-26T03:32:50.192Z,24.80
2018-12-26T03:35:30.994Z,22.50
2018-12-26T03:38:11.700Z,22.50
2018-12-26T03:40:52.314Z,22.63
2018-12-26T03:43:33.356Z,23.10
2018-12-26T03:46:13.710Z,22.40
2018-12-26T03:48:54.195Z,23.63
2018-12-26T03:51:34.532Z,22.07
2018-12-26T03:54:15.157Z,24.30
2018-12-26T03:56:55.594Z,24.43
2018-12-26T03:59:36.158Z,24.53
2018-12-26T04:02:16.738Z,21.67
2018-12-26T04:04:57.553Z,22.17
2018-12-26T04:07:38.381Z,22.50
2018-12-26T04:10:19.276Z,21.80
2018-12-26T04:12:59.964Z,22.10
2018-12-26T04:15:40.619Z,22.47
2018-12-26T04:18:20.921Z,21.70
2018-12-26T04:21:01.592Z,25.23
2018-12-26T04:23:42.031Z,21.00
2018-12-26T04:29:26.717Z,22.33
2018-12-26T04:32:07.355Z,22.20
2018-12-26T04:34:47.980Z,24.97
2018-12-26T04:37:28.264Z,21.53
2018-12-26T04:40:09.252Z,23.43
2018-12-26T04:42:49.796Z,24.00
2018-12-26T04:45:30.631Z,23.80
2018-12-26T04:48:11.851Z,23.90
2018-12-26T04:50:52.711Z,24.30
2018-12-26T04:53:33.373Z,22.77
2018-12-26T04:56:14.491Z,22.37
2018-12-26T04:58:55.571Z,23.83
2018-12-26T05:01:36.291Z,21.07
2018-12-26T05:04:16.527Z,23.00
2018-12-26T05:06:57.546Z,22.40
2018-12-26T05:09:38.204Z,23.53
2018-12-26T05:12:19.323Z,24.10
2018-12-26T05:15:00.484Z,25.83
2018-12-26T05:17:41.231Z,25.30
2018-12-26T05:20:21.476Z,24.37
2018-12-26T05:23:02.163Z,25.83
2018-12-26T05:25:42.889Z,25.10
2018-12-26T05:28:24.163Z,26.37
2018-12-26T05:31:04.719Z,23.47
2018-12-26T05:33:45.873Z,26.97
2018-12-26T05:36:26.116Z,27.50
2018-12-26T05:39:06.868Z,26.20
2018-12-26T05:41:47.430Z,25.17
2018-12-26T05:44:28.019Z,26.37
2018-12-26T05:47:08.338Z,24.53
2018-12-26T05:49:49.327Z,25.20
2018-12-26T05:52:30.428Z,26.70
2018-12-26T05:55:11.372Z,26.53
2018-12-26T05:57:51.677Z,27.00
2018-12-26T06:00:32.611Z,27.60
2018-12-26T06:03:13.156Z,28.93
2018-12-26T06:05:53.751Z,28.83
2018-12-26T06:08:34.072Z,25.63
2018-12-26T06:11:14.947Z,24.50
2018-12-26T06:13:55.193Z,25.80
2018-12-26T06:16:35.991Z,26.20
2018-12-26T06:19:16.284Z,25.07
2018-12-26T06:22:00.155Z,27.73
2018-12-26T06:24:41.096Z,26.13
2018-12-26T06:27:22.125Z,25.43
2018-12-26T06:30:02.935Z,26.63
2018-12-26T06:32:43.700Z,25.93
2018-12-26T06:35:24.619Z,24.67
2018-12-26T06:38:05.837Z,22.93
2018-12-26T06:40:46.939Z,26.53
2018-12-26T06:43:27.707Z,25.47
2018-12-26T06:49:27.535Z,25.80
2018-12-26T06:52:08.460Z,25.73
2018-12-26T06:54:49.433Z,23.77
2018-12-26T06:57:29.822Z,27.47
2018-12-26T07:00:10.859Z,28.17
2018-12-26T07:02:52.255Z,26.03
2018-12-26T07:05:32.811Z,28.70
2018-12-26T07:08:13.224Z,25.80
2018-12-26T07:10:53.995Z,31.07
2018-12-26T07:13:34.547Z,26.53
2018-12-26T07:16:15.615Z,26.03
2018-12-26T07:18:56.062Z,25.73
2018-12-26T07:21:36.927Z,25.07
2018-12-26T07:27:36.395Z,26.13
2018-12-26T07:30:16.822Z,27.00
2018-12-26T07:36:18.394Z,24.57
2018-12-26T07:38:47.132Z,28.27
2018-12-26T07:41:15.573Z,27.67
2018-12-26T07:47:13.282Z,27.97
2018-12-26T07:49:41.787Z,26.77
2018-12-26T07:52:10.282Z,27.60
2018-12-26T07:54:38.720Z,26.73
2018-12-26T07:57:07.907Z,24.83
2018-12-26T07:59:37.711Z,26.00
2018-12-26T08:02:06.669Z,29.33
2018-12-26T08:04:35.431Z,29.43
2018-12-26T08:07:03.895Z,29.27
2018-12-26T08:09:32.326Z,27.27
2018-12-26T08:12:00.799Z,27.57
2018-12-26T08:14:29.241Z,29.10
2018-12-26T08:16:57.955Z,28.27
2018-12-26T08:22:55.415Z,27.50
2018-12-26T08:28:52.360Z,28.57
2018-12-26T08:31:20.827Z,28.93
2018-12-26T08:33:49.263Z,30.27
2018-12-26T08:36:19.808Z,26.17
2018-12-26T08:38:48.375Z,27.70
2018-12-26T08:41:18.628Z,27.83
2018-12-26T08:43:47.251Z,29.30
2018-12-26T08:46:15.718Z,27.60
2018-12-26T08:48:44.431Z,27.77
2018-12-26T08:51:12.870Z,25.03
2018-12-26T08:57:10.450Z,31.03
2018-12-26T08:59:38.936Z,25.23
2018-12-26T09:02:07.374Z,25.97
2018-12-26T09:04:35.801Z,26.47
2018-12-26T09:07:04.279Z,26.07
2018-12-26T09:09:32.702Z,27.43
2018-12-26T09:15:29.891Z,27.70
2018-12-26T09:21:27.555Z,27.67
2018-12-26T09:23:56.030Z,28.47
2018-12-26T09:26:24.467Z,28.40
2018-12-26T09:32:21.548Z,26.17
2018-12-26T09:38:19.152Z,26.83
2018-12-26T09:44:16.991Z,26.77
2018-12-26T09:46:45.749Z,28.70
2018-12-26T09:49:14.584Z,30.07
2018-12-26T09:51:43.383Z,33.47
2018-12-26T09:54:12.166Z,27.13
2018-12-26T09:56:40.603Z,25.23
2018-12-26T09:59:09.265Z,24.53
2018-12-26T10:01:37.978Z,26.70
2018-12-26T10:04:06.414Z,28.30
2018-12-26T10:06:34.851Z,26.13
2018-12-26T10:12:32.000Z,25.20
2018-12-26T10:15:00.858Z,26.70
2018-12-26T10:21:10.287Z,25.20
2018-12-26T10:27:20.002Z,28.63
2018-12-26T10:29:48.783Z,28.33
2018-12-26T10:35:46.103Z,26.57
2018-12-26T10:41:31.816Z,28.13
2018-12-26T10:47:05.103Z,28.73
2018-12-26T10:49:33.856Z,27.87
2018-12-26T10:55:19.282Z,27.23
2018-12-26T11:01:29.112Z,27.57
2018-12-26T11:03:57.542Z,29.13
2018-12-26T11:06:25.985Z,30.97
2018-12-26T11:08:54.922Z,31.33
2018-12-26T11:15:06.627Z,30.23
2018-12-26T11:17:35.240Z,29.90
2018-12-26T11:20:06.583Z,26.53
2018-12-26T11:22:35.231Z,29.07
2018-12-26T11:25:05.299Z,26.03
2018-12-26T11:31:02.050Z,24.27
2018-12-26T11:33:30.776Z,27.60
2018-12-26T11:35:59.214Z,25.73
2018-12-26T11:38:27.654Z,26.67
2018-12-26T11:40:56.430Z,24.57
2018-12-26T11:43:25.280Z,25.63
2018-12-26T11:49:21.926Z,23.40
2018-12-26T11:51:50.768Z,24.67
2018-12-26T11:54:19.581Z,23.27
2018-12-26T11:56:48.048Z,21.80
2018-12-26T11:59:16.877Z,22.07
2018-12-26T12:05:26.235Z,20.57
2018-12-26T12:07:54.751Z,21.20
2018-12-26T12:13:51.821Z,20.40
2018-12-26T12:16:20.565Z,20.77
2018-12-26T12:18:49.071Z,18.57
2018-12-26T12:21:17.518Z,21.57
2018-12-26T12:23:46.318Z,21.17
2018-12-26T12:26:14.761Z,22.30
2018-12-26T12:28:43.196Z,18.87
2018-12-26T12:31:11.787Z,20.53
2018-12-26T12:33:40.531Z,18.93
2018-12-26T12:36:08.959Z,19.53
2018-12-26T12:38:37.514Z,20.57
2018-12-26T12:44:34.967Z,19.97
2018-12-26T12:47:03.411Z,24.30
2018-12-26T12:53:00.735Z,19.13
2018-12-26T12:55:29.566Z,21.47
2018-12-26T12:57:58.011Z,20.53
2018-12-26T13:00:26.443Z,21.97
2018-12-26T13:06:23.203Z,21.83
2018-12-26T13:08:52.011Z,21.10
2018-12-26T13:11:20.451Z,20.40
2018-12-26T13:13:49.234Z,23.73
2018-12-26T13:16:18.235Z,24.40
2018-12-26T13:22:28.444Z,23.57
2018-12-26T13:24:56.879Z,23.30
2018-12-26T13:27:25.311Z,24.47
2018-12-26T13:29:54.173Z,22.93
2018-12-26T13:32:22.745Z,21.93
2018-12-26T13:34:51.179Z,24.90
2018-12-26T13:37:19.986Z,26.57
2018-12-26T13:43:29.953Z,23.87
2018-12-26T13:45:58.386Z,22.67
2018-12-26T13:48:26.822Z,24.33
2018-12-26T13:50:55.373Z,25.13
2018-12-26T13:53:24.190Z,23.47
2018-12-26T13:55:52.618Z,27.30
2018-12-26T13:58:21.099Z,22.27
2018-12-26T14:00:49.542Z,23.93
2018-12-26T14:06:46.282Z,23.53
2018-12-26T14:09:14.719Z,23.70
2018-12-26T14:11:43.501Z,22.93
2018-12-26T14:14:11.939Z,22.73
2018-12-26T14:16:40.379Z,24.40
2018-12-26T14:19:08.846Z,27.67
2018-12-26T14:21:37.289Z,25.83
2018-12-26T14:24:06.088Z,26.80
2018-12-26T14:26:34.814Z,25.77
2018-12-26T14:29:03.250Z,25.47
2018-12-26T14:35:00.320Z,26.40
2018-12-26T14:37:29.287Z,26.07
2018-12-26T14:43:38.966Z,24.97
2018-12-26T14:46:07.474Z,27.67
2018-12-26T14:48:36.081Z,27.87
2018-12-26T14:51:04.892Z,26.73
2018-12-26T14:53:33.327Z,25.37
2018-12-26T14:56:02.059Z,30.20
2018-12-26T14:58:30.603Z,26.20
2018-12-26T15:00:59.343Z,27.97
2018-12-26T15:03:27.846Z,28.73
2018-12-26T15:09:25.646Z,26.17
2018-12-26T15:11:54.325Z,27.87
2018-12-26T15:14:22.773Z,28.23
2018-12-26T15:16:51.212Z,26.67
2018-12-26T15:19:19.888Z,25.30
2018-12-26T15:21:48.315Z,28.73
2018-12-26T15:24:17.111Z,30.13
2018-12-26T15:26:45.770Z,30.63
2018-12-26T15:29:14.210Z,26.07
2018-12-26T15:31:42.647Z,26.17
2018-12-26T15:34:11.307Z,25.47
2018-12-26T15:36:39.914Z,26.77
2018-12-26T15:39:09.559Z,28.27
2018-12-26T15:41:38.303Z,26.37
2018-12-26T15:44:06.735Z,26.33
2018-12-26T15:46:35.167Z,24.27
2018-12-26T15:49:03.947Z,27.83
2018-12-26T15:51:32.383Z,24.07
2018-12-26T15:54:00.818Z,26.70
2018-12-26T15:56:29.420Z,27.40
2018-12-26T15:58:57.846Z,28.77
2018-12-26T16:01:26.287Z,26.47
2018-12-26T16:03:55.124Z,26.50
2018-12-26T16:06:23.555Z,27.73
2018-12-26T16:08:52.307Z,27.80
2018-12-26T16:14:49.352Z,26.00
2018-12-26T16:17:18.079Z,29.10
2018-12-26T16:19:46.510Z,27.43
2018-12-26T16:22:15.203Z,27.77
2018-12-26T16:24:44.047Z,25.73
2018-12-26T16:27:12.485Z,31.40
2018-12-26T16:29:41.278Z,28.20
2018-12-26T16:32:09.811Z,29.20
2018-12-26T16:34:38.263Z,28.40
2018-12-26T16:37:06.702Z,28.20
2018-12-26T16:39:35.869Z,28.37
2018-12-26T16:42:04.677Z,29.07
2018-12-26T16:44:33.419Z,27.90
2018-12-26T16:47:02.416Z,31.17
2018-12-26T16:49:30.851Z,30.30
2018-12-26T16:51:59.288Z,30.27
2018-12-26T16:54:27.915Z,29.53
2018-12-26T16:56:56.472Z,30.30
2018-12-26T16:59:25.252Z,29.20
2018-12-26T17:01:53.883Z,31.37
2018-12-26T17:04:22.315Z,31.97
2018-12-26T17:06:51.122Z,29.73
2018-12-26T17:09:19.910Z,30.40
2018-12-26T17:11:48.412Z,29.83
2018-12-26T17:14:17.183Z,31.23
2018-12-26T17:16:45.923Z,31.93
2018-12-26T17:19:14.669Z,32.23
2018-12-26T17:21:43.104Z,29.50
2018-12-26T17:24:16.520Z,29.17
2018-12-26T17:26:42.155Z,30.83
2018-12-26T17:29:10.861Z,32.87
2018-12-26T17:31:39.494Z,31.90
2018-12-26T17:34:07.930Z,34.13
2018-12-26T17:36:36.413Z,30.20
2018-12-26T17:39:06.862Z,32.23
2018-12-26T17:41:35.303Z,32.10
2018-12-26T17:44:04.020Z,31.07
2018-12-26T17:46:33.126Z,33.00
2018-12-26T17:52:19.050Z,33.07
2018-12-26T17:54:48.726Z,32.03
2018-12-26T17:57:17.239Z,30.00
2018-12-26T17:59:48.782Z,31.53
2018-12-26T18:02:23.190Z,30.80
2018-12-26T18:04:51.795Z,32.00
2018-12-26T18:07:20.503Z,33.83
2018-12-26T18:09:48.949Z,34.37
2018-12-26T18:12:17.396Z,35.70
2018-12-26T18:14:45.855Z,31.83
2018-12-26T18:17:14.291Z,31.07
2018-12-26T18:19:42.728Z,31.20
2018-12-26T18:22:11.294Z,33.30
2018-12-26T18:24:39.719Z,34.47
2018-12-26T18:27:08.159Z,33.70
2018-12-26T18:29:36.999Z,35.17
2018-12-26T18:32:05.431Z,31.63
2018-12-26T18:34:33.871Z,31.77
2018-12-26T18:40:30.803Z,35.00
2018-12-26T18:42:59.237Z,34.77
2018-12-26T18:45:27.967Z,33.00
2018-12-26T18:47:56.407Z,33.83
2018-12-26T18:50:25.195Z,32.07
2018-12-26T18:52:53.935Z,30.90
2018-12-26T18:55:22.368Z,31.47
2018-12-26T18:57:50.815Z,30.57
2018-12-26T19:00:19.852Z,33.20
2018-12-26T19:02:48.291Z,33.50
2018-12-26T19:05:16.732Z,33.87
2018-12-26T19:07:45.191Z,34.73
2018-12-26T19:10:13.900Z,33.60
2018-12-26T19:12:42.341Z,35.87
2018-12-26T19:15:10.816Z,33.93
2018-12-26T19:17:39.258Z,34.27
2018-12-26T19:20:09.006Z,32.87
2018-12-26T19:22:37.467Z,36.93
2018-12-26T19:25:05.970Z,33.00
2018-12-26T19:27:34.725Z,34.37
2018-12-26T19:30:03.563Z,32.20
2018-12-26T19:36:13.147Z,28.73
2018-12-26T19:38:41.578Z,30.70
2018-12-26T19:41:10.012Z,31.80
2018-12-26T19:43:38.496Z,31.77
2018-12-26T19:46:06.926Z,29.93
2018-12-26T19:48:35.376Z,35.30
2018-12-26T19:51:04.255Z,33.33
2018-12-26T19:53:32.943Z,30.57
2018-12-26T19:56:01.396Z,28.43
2018-12-26T19:58:29.859Z,29.63
2018-12-26T20:04:39.590Z,29.47
2018-12-26T20:07:08.022Z,26.43
2018-12-26T20:13:05.162Z,28.30
2018-12-26T20:15:33.920Z,27.20
2018-12-26T20:18:02.653Z,25.40
2018-12-26T20:20:31.094Z,24.27
2018-12-26T20:23:00.135Z,27.73
2018-12-26T20:25:28.575Z,25.83
2018-12-26T20:27:57.020Z,27.87
2018-12-26T20:30:25.484Z,31.60
2018-12-26T20:36:35.167Z,27.47
2018-12-26T20:42:45.003Z,30.73
2018-12-26T20:48:54.535Z,28.13
2018-12-26T20:51:22.976Z,30.43
2018-12-26T20:57:20.575Z,30.30
2018-12-26T20:59:49.430Z,28.83
2018-12-26T21:05:59.957Z,28.30
2018-12-26T21:12:09.598Z,32.53
2018-12-26T21:14:38.039Z,35.00
2018-12-26T21:20:35.496Z,29.43
2018-12-26T21:23:04.312Z,32.07
2018-12-26T21:29:13.740Z,31.50
2018-12-26T21:35:23.640Z,34.60
2018-12-26T21:37:52.146Z,32.93
2018-12-26T21:40:20.942Z,33.37
2018-12-26T21:42:49.427Z,31.90
2018-12-26T21:48:58.702Z,34.57
2018-12-26T21:54:56.411Z,36.80
2018-12-26T21:57:25.196Z,33.00
2018-12-26T21:59:53.635Z,33.50
2018-12-26T22:02:22.554Z,32.00
2018-12-26T22:04:51.444Z,34.27
2018-12-26T22:10:24.073Z,32.57
2018-12-26T22:12:52.869Z,33.47
2018-12-26T22:19:02.470Z,31.63
2018-12-26T22:21:31.263Z,35.00
2018-12-26T22:27:28.138Z,32.27
2018-12-26T22:29:57.001Z,32.40
2018-12-26T22:32:30.638Z,31.53
2018-12-26T22:34:55.599Z,30.87
2018-12-26T22:40:52.470Z,31.10
2018-12-26T22:43:20.940Z,34.17
2018-12-26T22:45:49.375Z,31.90
2018-12-26T22:48:17.809Z,30.20
2018-12-26T22:50:46.303Z,33.10
2018-12-26T22:53:14.742Z,34.63
2018-12-26T22:55:43.179Z,32.80
2018-12-26T23:01:40.259Z,33.97
2018-12-26T23:04:08.731Z,34.13
2018-12-26T23:06:37.470Z,32.60
2018-12-26T23:09:07.335Z,31.87
2018-12-26T23:11:35.822Z,36.90
2018-12-26T23:14:04.395Z,33.70
2018-12-26T23:20:01.813Z,37.30
2018-12-26T23:22:30.279Z,37.00
2018-12-26T23:24:58.719Z,37.07
2018-12-26T23:27:27.160Z,36.80
2018-12-26T23:33:24.432Z,34.63
2018-12-26T23:39:21.226Z,36.63
2018-12-26T23:41:49.701Z,36.90
2018-12-26T23:44:18.417Z,37.37
2018-12-26T23:50:16.045Z,38.27
2018-12-26T23:52:44.516Z,39.17
2018-12-26T23:55:12.951Z,35.47
